Time;durP1;ratioP1;P1;durP2;ratioP2;P2;SDS_P1;SDS_P2;PMS_P1;PMS_P2;Temp;Humidity;BMP_temperature;BMP_pressure;BME280_temperature;BME280_humidity;BME280_pressure;Samples;Min_cycle;Max_cycle;Signal;HPM_P1;HPM_P2
2022/12/03 00:01:44;;;;;;;31.92;12.00;;;3.30;99.90;;;;;;4943562;28;20503;-91
2022/12/03 00:04:10;;;;;;;27.50;11.05;;;3.30;99.90;;;;;;4944176;28;20049;-92
2022/12/03 00:06:35;;;;;;;28.98;11.57;;;3.30;99.90;;;;;;4941686;28;20061;-92
2022/12/03 00:09:02;;;;;;;30.95;12.07;;;3.30;99.90;;;;;;4957312;28;20042;-92
2022/12/03 00:11:28;;;;;;;26.73;10.82;;;3.30;99.90;;;;;;4974621;28;20049;-91
2022/12/03 00:13:53;;;;;;;28.08;11.57;;;3.30;99.90;;;;;;4961230;28;20109;-92
2022/12/03 00:16:19;;;;;;;28.58;11.43;;;3.30;99.90;;;;;;4965267;28;20042;-91
2022/12/03 00:18:44;;;;;;;28.45;10.65;;;3.30;99.90;;;;;;4940660;28;20127;-92
2022/12/03 00:21:10;;;;;;;31.15;13.45;;;3.30;99.90;;;;;;4956897;28;20090;-92
2022/12/03 00:23:36;;;;;;;28.27;11.13;;;3.30;99.90;;;;;;4942337;28;20039;-91
2022/12/03 00:26:01;;;;;;;22.92;10.70;;;3.30;99.90;;;;;;4957783;28;21319;-92
2022/12/03 00:28:27;;;;;;;23.95;10.95;;;3.30;99.90;;;;;;4921100;29;20062;-90
2022/12/03 00:30:53;;;;;;;25.85;11.32;;;3.30;99.90;;;;;;4934599;29;20805;-92
2022/12/03 00:33:19;;;;;;;28.85;10.23;;;3.30;99.90;;;;;;4919216;29;20605;-93
2022/12/03 00:35:45;;;;;;;29.90;11.85;;;3.30;99.90;;;;;;4938615;29;20043;-93
2022/12/03 00:38:11;;;;;;;24.85;9.60;;;3.30;99.90;;;;;;4933707;29;20574;-92
2022/12/03 00:40:36;;;;;;;38.90;11.52;;;3.30;99.90;;;;;;4919104;29;20388;-92
2022/12/03 00:43:02;;;;;;;28.30;10.32;;;3.30;99.90;;;;;;4914787;29;20103;-93
2022/12/03 00:45:27;;;;;;;29.00;10.68;;;3.30;99.90;;;;;;4934007;29;20044;-92
2022/12/03 00:47:53;;;;;;;28.58;11.30;;;3.30;99.90;;;;;;4931856;29;20032;-92
2022/12/03 00:50:19;;;;;;;27.13;10.32;;;3.30;99.90;;;;;;4919360;29;20040;-91
2022/12/03 00:52:44;;;;;;;29.83;11.60;;;3.30;99.90;;;;;;4934557;29;20040;-92
2022/12/03 00:55:10;;;;;;;29.35;11.40;;;3.30;99.90;;;;;;4934577;29;20067;-91
2022/12/03 00:57:36;;;;;;;28.08;11.90;;;3.30;99.90;;;;;;4917923;29;20038;-89
2022/12/03 01:00:04;;;;;;;28.92;10.65;;;3.30;99.90;;;;;;4934458;29;20559;-90
2022/12/03 01:02:30;;;;;;;28.45;11.57;;;3.30;99.90;;;;;;4925376;29;20546;-89
2022/12/03 01:04:55;;;;;;;26.25;10.82;;;3.30;99.90;;;;;;4910817;29;20127;-91
2022/12/03 01:07:21;;;;;;;30.25;10.68;;;3.30;99.90;;;;;;4932154;29;20098;-91
2022/12/03 01:09:47;;;;;;;30.15;12.43;;;3.30;99.90;;;;;;4930296;29;20044;-90
2022/12/03 01:12:13;;;;;;;26.25;10.38;;;3.40;99.90;;;;;;4932251;29;20036;-93
2022/12/03 01:14:38;;;;;;;29.85;12.40;;;3.40;99.90;;;;;;4933028;29;20055;-90
2022/12/03 01:17:05;;;;;;;24.60;10.75;;;3.40;99.90;;;;;;4932669;29;20048;-89
2022/12/03 01:19:32;;;;;;;27.65;11.70;;;3.40;99.90;;;;;;4931809;29;20042;-90
2022/12/03 01:21:58;;;;;;;28.02;12.18;;;3.40;99.90;;;;;;4914718;29;20039;-90
2022/12/03 01:24:24;;;;;;;26.70;11.70;;;3.40;99.90;;;;;;4930213;29;20363;-91
2022/12/03 01:26:49;;;;;;;28.77;13.65;;;3.40;99.90;;;;;;4931840;29;20118;-92
2022/12/03 01:29:15;;;;;;;26.98;11.85;;;3.40;99.90;;;;;;4918440;29;20127;-90
2022/12/03 01:34:25;;;;;;;27.55;11.27;;;3.40;99.90;;;;;;4935725;29;20048;-90
2022/12/03 01:36:51;;;;;;;29.65;12.68;;;3.50;99.90;;;;;;4936497;29;20079;-89
2022/12/03 01:39:17;;;;;;;26.60;12.27;;;3.50;99.90;;;;;;4919601;29;20477;-90
2022/12/03 01:41:46;;;;;;;27.73;10.82;;;3.50;99.90;;;;;;4928253;29;20043;-90
2022/12/03 01:44:20;;;;;;;23.05;10.95;;;3.50;99.90;;;;;;4914508;29;20248;-91
2022/12/03 01:46:47;;;;;;;24.30;10.68;;;3.50;99.90;;;;;;4931186;29;20095;-90
2022/12/03 01:49:17;;;;;;;24.48;11.27;;;3.50;99.90;;;;;;4931107;29;20040;-88
2022/12/03 01:51:43;;;;;;;23.08;10.77;;;3.50;99.90;;;;;;4935252;29;20035;-89
2022/12/03 01:54:28;;;;;;;27.02;10.80;;;3.60;99.90;;;;;;4917520;29;20047;-90
2022/12/03 01:56:54;;;;;;;25.30;11.05;;;3.60;99.90;;;;;;4933475;29;20485;-90
2022/12/03 01:59:32;;;;;;;24.10;10.68;;;3.60;99.90;;;;;;4933048;29;20130;-92
2022/12/03 02:01:59;;;;;;;25.60;11.02;;;3.60;99.90;;;;;;4933346;29;20616;-90
2022/12/03 02:04:25;;;;;;;26.00;10.43;;;3.60;99.90;;;;;;4926204;29;20138;-90
2022/12/03 02:06:50;;;;;;;20.55;9.55;;;3.60;99.90;;;;;;4932488;29;20417;-90
2022/12/03 02:09:16;;;;;;;24.50;10.40;;;3.60;99.90;;;;;;4915297;29;20036;-91
2022/12/03 02:11:47;;;;;;;25.80;11.07;;;3.60;99.90;;;;;;4917148;29;20032;-88
2022/12/03 02:14:19;;;;;;;24.13;10.70;;;3.60;99.90;;;;;;4940373;29;20044;-90
2022/12/03 02:16:45;;;;;;;21.77;9.40;;;3.60;99.90;;;;;;4936014;29;20390;-89
2022/12/03 02:19:26;;;;;;;23.58;10.95;;;3.60;99.90;;;;;;4916659;29;20075;-89
2022/12/03 02:22:06;;;;;;;29.65;10.80;;;3.60;99.90;;;;;;4931461;29;20488;-90
2022/12/03 02:24:46;;;;;;;21.23;10.85;;;3.60;99.90;;;;;;4930683;29;20040;-89
2022/12/03 02:27:11;;;;;;;24.13;10.80;;;3.60;99.90;;;;;;4935791;29;20070;-91
2022/12/03 02:29:37;;;;;;;23.60;10.52;;;3.60;99.90;;;;;;4931939;29;20055;-90
2022/12/03 02:32:03;;;;;;;25.27;12.48;;;3.60;99.90;;;;;;4951028;29;20055;-91
2022/12/03 02:34:37;;;;;;;25.52;11.55;;;3.60;99.90;;;;;;4936310;29;20049;-90
2022/12/03 02:37:05;;;;;;;27.17;11.25;;;3.60;99.90;;;;;;4952895;29;20043;-91
2022/12/03 02:39:34;;;;;;;25.15;10.52;;;3.60;99.90;;;;;;4951871;29;20047;-89
2022/12/03 02:44:43;;;;;;;27.23;11.65;;;3.60;99.90;;;;;;4945007;29;20048;-91
2022/12/03 02:47:09;;;;;;;28.95;12.48;;;3.60;99.90;;;;;;4948023;29;20053;-89
2022/12/03 02:49:35;;;;;;;25.00;11.15;;;3.60;99.90;;;;;;4954275;28;20061;-91
2022/12/03 02:52:01;;;;;;;27.20;11.43;;;3.60;99.90;;;;;;4949915;29;20039;-91
2022/12/03 02:54:27;;;;;;;30.17;13.25;;;3.50;99.90;;;;;;4936156;29;20098;-90
2022/12/03 02:56:52;;;;;;;25.67;11.88;;;3.50;99.90;;;;;;4952956;28;20046;-91
2022/12/03 02:59:18;;;;;;;24.40;10.93;;;3.50;99.90;;;;;;4938580;29;20047;-92
2022/12/03 03:01:44;;;;;;;26.25;10.88;;;3.50;99.90;;;;;;4958844;28;20051;-92
2022/12/03 03:04:10;;;;;;;24.40;11.32;;;3.50;99.90;;;;;;4955541;29;20054;-93
2022/12/03 03:06:35;;;;;;;26.73;12.18;;;3.50;99.90;;;;;;4956665;29;20054;-91
2022/12/03 03:09:02;;;;;;;24.75;11.32;;;3.50;99.90;;;;;;4956140;29;20044;-90
2022/12/03 03:11:28;;;;;;;27.30;11.32;;;3.40;99.90;;;;;;4955701;29;20035;-91
2022/12/03 03:13:54;;;;;;;24.85;11.57;;;3.40;99.90;;;;;;4937526;29;20039;-90
2022/12/03 03:16:19;;;;;;;22.80;11.43;;;3.40;99.90;;;;;;4940363;29;20454;-91
2022/12/03 03:18:45;;;;;;;30.17;13.23;;;3.40;99.90;;;;;;4941206;29;20038;-89
2022/12/03 03:21:12;;;;;;;26.52;11.18;;;3.40;99.90;;;;;;4958181;29;20042;-89
2022/12/03 03:23:37;;;;;;;24.58;11.32;;;3.30;99.90;;;;;;4941870;29;20158;-91
2022/12/03 03:26:07;;;;;;;25.42;10.82;;;3.30;99.90;;;;;;4958451;28;20067;-90
2022/12/03 03:28:39;;;;;;;25.48;10.55;;;3.30;99.90;;;;;;4952152;29;20043;-91
2022/12/03 03:31:07;;;;;;;25.80;11.43;;;3.20;99.90;;;;;;4962069;28;20050;-89
2022/12/03 03:33:34;;;;;;;26.50;11.52;;;3.30;99.90;;;;;;4963638;29;20051;-91
2022/12/03 03:36:00;;;;;;;23.65;10.75;;;3.20;99.90;;;;;;4956840;29;20046;-92
2022/12/03 03:38:27;;;;;;;25.67;11.95;;;3.20;99.90;;;;;;4940543;29;20044;-89
2022/12/03 03:40:53;;;;;;;24.15;10.75;;;3.20;99.90;;;;;;4955159;29;20043;-90
2022/12/03 03:43:21;;;;;;;25.95;10.80;;;3.20;99.90;;;;;;4938865;29;20091;-92
2022/12/03 03:45:47;;;;;;;27.15;10.98;;;3.20;99.90;;;;;;4940385;29;20416;-88
2022/12/03 03:48:13;;;;;;;25.50;10.52;;;3.10;99.90;;;;;;4955607;28;20043;-90
2022/12/03 03:50:41;;;;;;;24.55;11.45;;;3.20;99.90;;;;;;4955963;29;20801;-90
2022/12/03 03:53:06;;;;;;;25.02;11.23;;;3.10;99.90;;;;;;4937773;29;20401;-90
2022/12/03 03:55:33;;;;;;;29.85;13.23;;;3.10;99.90;;;;;;4956801;28;20045;-92
2022/12/03 03:57:59;;;;;;;28.55;12.00;;;3.20;99.90;;;;;;4955701;29;20122;-90
2022/12/03 04:00:25;;;;;;;26.60;12.30;;;3.20;99.90;;;;;;4940668;29;20071;-91
2022/12/03 04:02:51;;;;;;;27.15;12.05;;;3.20;99.90;;;;;;4973837;28;20019;-91
2022/12/03 04:05:19;;;;;;;25.90;13.13;;;3.20;99.90;;;;;;4974732;28;20083;-90
2022/12/03 04:07:45;;;;;;;26.08;11.98;;;3.20;99.90;;;;;;4972131;28;20062;-89
2022/12/03 04:12:56;;;;;;;23.88;10.45;;;3.20;99.90;;;;;;4974111;28;20048;-89
2022/12/03 04:15:23;;;;;;;24.30;11.32;;;3.20;99.90;;;;;;4961794;29;20207;-89
2022/12/03 04:18:41;;;;;;;25.23;11.43;;;3.20;99.90;;;;;;4975320;28;20110;-91
2022/12/03 04:20:34;;;;;;;28.20;11.45;;;3.20;99.90;;;;;;4974943;28;20035;-89
2022/12/03 04:23:00;;;;;;;24.15;9.95;;;3.30;99.90;;;;;;4963889;28;20047;-91
2022/12/03 04:30:54;;;;;;;23.63;11.25;;;3.30;99.90;;;;;;4953728;28;20043;-90
2022/12/03 04:36:04;;;;;;;28.65;12.07;;;3.20;99.90;;;;;;4950984;28;20050;-91
2022/12/03 04:38:30;;;;;;;26.17;11.35;;;3.20;99.90;;;;;;4958048;28;20103;-92
2022/12/03 04:41:02;;;;;;;27.35;11.48;;;3.20;99.90;;;;;;4953233;28;22022;-91
2022/12/03 04:43:31;;;;;;;23.60;10.90;;;3.20;99.90;;;;;;4952545;28;20034;-89
2022/12/03 04:45:57;;;;;;;24.60;11.10;;;3.20;99.90;;;;;;4952112;28;20512;-91
2022/12/03 04:48:23;;;;;;;27.77;11.05;;;3.20;99.90;;;;;;4950384;28;20043;-91
2022/12/03 04:50:49;;;;;;;25.63;11.63;;;3.20;99.90;;;;;;4938179;28;20045;-90
2022/12/03 04:53:14;;;;;;;24.17;12.05;;;3.20;99.90;;;;;;4951478;28;20440;-88
2022/12/03 04:55:40;;;;;;;25.25;10.50;;;3.20;99.90;;;;;;4953485;28;20085;-91
2022/12/03 04:58:06;;;;;;;23.80;10.90;;;3.20;99.90;;;;;;4939725;28;20102;-90
2022/12/03 05:00:31;;;;;;;24.60;10.90;;;3.20;99.90;;;;;;4939187;28;20459;-90
2022/12/03 05:02:57;;;;;;;23.45;10.75;;;3.20;99.90;;;;;;4957615;28;20035;-91
2022/12/03 05:05:23;;;;;;;25.65;12.30;;;3.20;99.90;;;;;;4937973;28;20590;-90
2022/12/03 05:07:48;;;;;;;28.17;12.48;;;3.10;99.90;;;;;;4952882;28;20045;-88
2022/12/03 05:10:14;;;;;;;27.45;12.05;;;3.10;99.90;;;;;;4954872;28;20082;-88
2022/12/03 05:12:40;;;;;;;27.98;13.27;;;3.20;99.90;;;;;;4956477;28;20054;-89
2022/12/03 05:15:06;;;;;;;29.27;12.40;;;3.10;99.90;;;;;;4955630;28;20463;-90
2022/12/03 05:17:31;;;;;;;26.27;11.52;;;3.10;99.90;;;;;;4958387;28;20393;-90
2022/12/03 05:22:42;;;;;;;27.15;11.25;;;3.10;99.90;;;;;;4954990;28;20516;-90
2022/12/03 05:25:08;;;;;;;25.92;11.93;;;3.10;99.90;;;;;;4964483;28;20122;-90
2022/12/03 12:41:19;;;;;;;47.25;23.90;;;3.00;99.90;;;;;;5400482;22;20922089;-85
2022/12/03 12:43:45;;;;;;;35.33;16.42;;;3.20;99.90;;;;;;6217274;23;20020;-86
2022/12/03 12:46:12;;;;;;;34.03;14.93;;;3.20;99.90;;;;;;6230445;23;20019;-87
2022/12/03 12:48:41;;;;;;;33.00;14.43;;;3.30;99.90;;;;;;6227978;23;20086;-84
2022/12/03 12:51:17;;;;;;;33.33;15.20;;;3.40;99.90;;;;;;6247540;23;20453;-83
2022/12/03 12:53:44;;;;;;;33.47;14.80;;;3.50;99.90;;;;;;6243739;23;20035;-87
2022/12/03 12:56:30;;;;;;;32.22;15.15;;;3.50;99.90;;;;;;6192794;23;20013;-84
2022/12/03 12:59:00;;;;;;;32.38;15.27;;;3.60;99.90;;;;;;6242777;23;20105;-86
2022/12/03 13:01:31;;;;;;;32.38;14.93;;;3.60;99.90;;;;;;6243099;23;20012;-86
2022/12/03 13:03:58;;;;;;;36.20;16.08;;;3.70;99.90;;;;;;6245514;22;20093;-93
2022/12/03 13:06:29;;;;;;;36.45;18.05;;;3.50;99.90;;;;;;6246006;23;20039;-89
2022/12/03 13:08:57;;;;;;;34.72;15.32;;;3.30;99.90;;;;;;6221526;23;20445;-94
2022/12/03 13:11:28;;;;;;;33.95;15.73;;;3.10;99.90;;;;;;6246819;23;20009;-93
2022/12/03 13:13:54;;;;;;;;;;;3.00;99.90;;;;;;6248682;23;20019;-91
2022/12/03 13:16:31;;;;;;;36.63;15.07;;;2.90;99.90;;;;;;6247503;23;19947;-94
2022/12/03 13:19:00;;;;;;;35.17;14.32;;;2.80;99.90;;;;;;6222339;23;20026;-92
2022/12/03 13:21:39;;;;;;;30.80;13.85;;;2.70;99.90;;;;;;6250929;22;20394;-92
2022/12/03 13:24:23;;;;;;;35.95;15.75;;;2.70;99.90;;;;;;6221359;23;20065;-91
2022/12/03 13:26:49;;;;;;;40.55;15.90;;;2.70;99.90;;;;;;6248406;23;20059;-92
2022/12/03 13:29:18;;;;;;;33.72;15.10;;;2.70;99.90;;;;;;6247314;23;20016;-93
2022/12/03 13:32:12;;;;;;;40.08;16.17;;;2.60;99.90;;;;;;6246634;23;20092;-93
2022/12/03 13:34:38;;;;;;;33.40;14.65;;;2.60;99.90;;;;;;6249443;22;20039;-93
2022/12/03 13:37:22;;;;;;;34.80;15.43;;;2.60;99.90;;;;;;6246479;23;20064;-93
2022/12/03 13:39:53;;;;;;;35.05;16.65;;;2.60;99.90;;;;;;6245773;23;20024;-94
2022/12/03 13:42:37;;;;;;;35.63;16.23;;;2.60;99.90;;;;;;6221948;23;20048;-93
2022/12/03 13:45:12;;;;;;;39.33;17.48;;;2.60;99.90;;;;;;6222925;23;20023;-92
2022/12/03 13:47:40;;;;;;;39.08;17.10;;;2.60;99.90;;;;;;6255387;23;20020;-89
2022/12/03 13:50:36;;;;;;;37.40;16.23;;;2.50;99.90;;;;;;6229289;23;20008;-94
2022/12/03 13:53:18;;;;;;;38.42;17.50;;;2.50;99.90;;;;;;6226277;23;20014;-94
2022/12/03 13:55:54;;;;;;;36.80;17.52;;;2.50;99.90;;;;;;6224337;23;20008;-94
2022/12/03 13:58:19;;;;;;;37.75;17.10;;;2.50;99.90;;;;;;6248415;22;20066;-89
2022/12/03 14:00:45;;;;;;;40.15;16.35;;;2.40;99.90;;;;;;6249460;23;20016;-91
2022/12/03 14:03:11;;;;;;;39.65;15.20;;;2.40;99.90;;;;;;6220893;23;20091;-92
2022/12/03 14:05:36;;;;;;;37.00;16.42;;;2.40;99.90;;;;;;6247213;23;20507;-93
2022/12/03 14:08:03;;;;;;;36.97;16.23;;;2.40;99.90;;;;;;6222874;23;20014;-94
2022/12/03 14:10:29;;;;;;;33.47;14.55;;;2.40;99.90;;;;;;6258109;23;20012;-90
2022/12/03 14:12:55;;;;;;;36.70;16.00;;;2.40;99.90;;;;;;6261796;23;20040;-93
2022/12/03 14:15:21;;;;;;;35.30;17.50;;;2.40;99.90;;;;;;6221812;23;20008;-92
2022/12/03 14:17:47;;;;;;;36.38;16.45;;;2.40;99.90;;;;;;6221623;23;20020;-92
2022/12/03 14:20:16;;;;;;;35.58;16.58;;;2.40;99.90;;;;;;6223678;23;20346;-92
2022/12/03 14:22:41;;;;;;;31.08;15.18;;;2.40;99.90;;;;;;6249045;23;20438;-91
2022/12/03 14:25:07;;;;;;;32.75;14.98;;;2.40;99.90;;;;;;6247446;23;20027;-92
2022/12/03 14:27:33;;;;;;;34.63;15.70;;;2.40;99.90;;;;;;6247802;23;20008;-92
2022/12/03 14:29:59;;;;;;;32.60;16.30;;;2.40;99.90;;;;;;6249377;23;20009;-92
2022/12/03 14:32:24;;;;;;;33.58;14.25;;;2.40;99.90;;;;;;6221742;23;20004;-93
2022/12/03 14:34:50;;;;;;;34.25;15.93;;;2.30;99.90;;;;;;6247549;23;20057;-94
2022/12/03 14:37:16;;;;;;;38.15;17.00;;;2.30;99.90;;;;;;6247686;23;20075;-93
2022/12/03 14:39:42;;;;;;;31.58;15.07;;;2.30;99.90;;;;;;6249168;23;20047;-93
2022/12/03 14:42:15;;;;;;;39.03;16.90;;;2.30;99.90;;;;;;6248346;23;20043;-93
2022/12/03 14:44:46;;;;;;;39.03;15.60;;;2.30;99.90;;;;;;6251850;23;20016;-92
2022/12/03 14:47:14;;;;;;;40.88;17.10;;;2.30;99.90;;;;;;6248267;23;20400;-93
2022/12/03 14:49:42;;;;;;;40.15;17.17;;;2.30;99.90;;;;;;6250237;22;20075;-92
2022/12/03 14:52:08;;;;;;;39.55;16.73;;;2.20;99.90;;;;;;6248507;23;20023;-93
2022/12/03 14:54:34;;;;;;;39.67;17.85;;;2.20;99.90;;;;;;6251617;22;20008;-94
2022/12/03 14:57:00;;;;;;;40.33;17.08;;;2.20;99.90;;;;;;6249373;23;20012;-92
2022/12/03 14:59:26;;;;;;;35.17;14.20;;;2.10;99.90;;;;;;6250975;22;20150;-94
2022/12/03 15:01:51;;;;;;;35.30;16.33;;;2.10;99.90;;;;;;6250496;22;20012;-93
2022/12/03 15:04:18;;;;;;;40.95;18.27;;;2.10;99.90;;;;;;6248154;23;20060;-93
2022/12/03 15:06:45;;;;;;;36.90;17.85;;;2.10;99.90;;;;;;6248478;23;20012;-90
2022/12/03 15:09:11;;;;;;;35.22;16.85;;;2.10;99.90;;;;;;6247943;23;20018;-93
2022/12/03 15:11:40;;;;;;;34.58;16.38;;;2.10;99.90;;;;;;6247186;23;20016;-91
2022/12/03 15:14:07;;;;;;;34.40;15.70;;;2.00;99.90;;;;;;6245533;23;20070;-94
2022/12/03 15:16:33;;;;;;;33.10;15.25;;;2.00;99.90;;;;;;6249962;22;20008;-93
2022/12/03 15:18:58;;;;;;;33.65;14.57;;;2.00;99.90;;;;;;6247364;23;20019;-93
2022/12/03 15:21:24;;;;;;;35.30;15.65;;;1.90;99.90;;;;;;6249739;23;20020;-94
2022/12/03 15:23:49;;;;;;;34.50;14.88;;;1.90;99.90;;;;;;6247810;23;20012;-92
2022/12/03 15:26:15;;;;;;;32.40;14.05;;;1.90;99.90;;;;;;6222420;23;20019;-93
2022/12/03 15:28:41;;;;;;;35.80;14.32;;;1.90;99.90;;;;;;6250091;23;20009;-92
2022/12/03 15:31:18;;;;;;;31.80;14.90;;;1.90;99.90;;;;;;6249027;23;20079;-90
2022/12/03 15:33:44;;;;;;;34.05;15.00;;;1.90;99.90;;;;;;6247850;23;20008;-92
2022/12/03 15:36:11;;;;;;;34.13;15.07;;;1.90;99.90;;;;;;6249896;23;20056;-92
2022/12/03 15:38:37;;;;;;;31.23;13.23;;;1.80;99.90;;;;;;6252371;23;20119;-93
2022/12/03 15:41:50;;;;;;;32.88;14.43;;;1.80;99.90;;;;;;6255639;23;20019;-94
2022/12/03 15:43:51;;;;;;;31.83;13.80;;;1.80;99.90;;;;;;6242804;22;20386;-91
2022/12/03 15:46:17;;;;;;;34.78;14.15;;;1.80;99.90;;;;;;6229994;23;20027;-92
2022/12/03 15:48:43;;;;;;;34.33;13.63;;;1.80;99.90;;;;;;6258094;22;20012;-93
2022/12/03 15:51:09;;;;;;;29.65;12.52;;;1.80;99.90;;;;;;6254646;23;20014;-92
2022/12/03 15:53:34;;;;;;;33.45;14.15;;;1.80;99.90;;;;;;6257620;23;20038;-92
2022/12/03 15:56:00;;;;;;;29.90;12.77;;;1.80;99.90;;;;;;6260460;23;20068;-90
2022/12/03 15:58:27;;;;;;;31.73;12.52;;;1.70;99.90;;;;;;6266565;23;20012;-92
2022/12/03 16:00:52;;;;;;;34.13;14.50;;;1.80;99.90;;;;;;6233917;23;20012;-93
2022/12/03 16:03:18;;;;;;;35.22;14.95;;;1.80;99.90;;;;;;6255292;23;20023;-94
2022/12/03 16:05:46;;;;;;;29.85;13.27;;;1.80;99.90;;;;;;6260050;22;20022;-95
2022/12/03 16:08:12;;;;;;;31.65;14.13;;;1.80;99.90;;;;;;6235563;23;20072;-94
2022/12/03 16:10:38;;;;;;;27.63;12.48;;;1.70;99.90;;;;;;6230061;23;20012;-94
2022/12/03 16:13:04;;;;;;;29.70;12.57;;;1.80;99.90;;;;;;6251971;23;20019;-93
2022/12/03 16:15:30;;;;;;;31.65;15.20;;;1.90;99.90;;;;;;6249169;23;20008;-95
2022/12/03 16:17:55;;;;;;;31.23;12.63;;;1.90;99.90;;;;;;6247540;23;20016;-93
2022/12/03 16:20:21;;;;;;;27.98;12.23;;;1.90;99.90;;;;;;6249284;23;20008;-94
2022/12/03 16:22:47;;;;;;;30.90;12.70;;;1.90;99.90;;;;;;6250529;22;20434;-94
2022/12/03 16:25:12;;;;;;;30.98;13.32;;;1.90;99.90;;;;;;6248444;23;20445;-93
2022/12/03 16:27:38;;;;;;;29.98;13.27;;;1.90;99.90;;;;;;6248000;23;20012;-90
2022/12/03 16:30:05;;;;;;;29.02;13.70;;;1.90;99.90;;;;;;6246862;23;20024;-89
2022/12/03 16:32:31;;;;;;;28.85;12.55;;;1.90;99.90;;;;;;6249522;22;20019;-93
2022/12/03 16:34:57;;;;;;;28.42;12.52;;;1.90;99.90;;;;;;6248505;23;20326;-94
2022/12/03 16:37:22;;;;;;;30.25;12.80;;;1.90;99.90;;;;;;6249119;22;20016;-95
2022/12/03 16:39:49;;;;;;;30.45;14.15;;;1.90;99.90;;;;;;6249382;22;20039;-92
2022/12/03 16:42:16;;;;;;;28.38;11.77;;;1.90;99.90;;;;;;6222044;23;20077;-94
2022/12/03 16:47:26;;;;;;;28.48;11.65;;;1.90;99.90;;;;;;6250639;23;20078;-93
2022/12/03 16:49:51;;;;;;;27.98;12.18;;;1.90;99.90;;;;;;6248738;22;20008;-94
2022/12/03 16:52:17;;;;;;;27.35;12.20;;;1.90;99.90;;;;;;6248009;23;20326;-95
2022/12/03 16:54:43;;;;;;;26.80;10.35;;;1.90;99.90;;;;;;6249475;23;20066;-93
2022/12/03 16:57:09;;;;;;;27.65;12.95;;;1.90;99.90;;;;;;6247975;23;20012;-94
2022/12/03 16:59:35;;;;;;;27.90;11.63;;;1.90;99.90;;;;;;6223120;23;20050;-96
2022/12/03 17:02:11;;;;;;;24.90;11.10;;;2.00;99.90;;;;;;6224527;23;20012;-94
2022/12/03 17:04:37;;;;;;;31.58;12.57;;;1.90;99.90;;;;;;6253755;23;20074;-94
2022/12/03 17:07:02;;;;;;;26.52;12.73;;;1.90;99.90;;;;;;6248142;22;20438;-95
2022/12/03 17:09:28;;;;;;;27.63;13.13;;;1.90;99.90;;;;;;6248235;23;20015;-94
2022/12/03 17:11:54;;;;;;;25.38;11.95;;;2.00;99.90;;;;;;6223553;23;20043;-94
2022/12/03 17:14:20;;;;;;;25.95;10.85;;;1.90;99.90;;;;;;6249528;22;20012;-94
2022/12/03 17:16:48;;;;;;;29.58;13.07;;;2.00;99.90;;;;;;6251597;22;20056;-93
2022/12/03 17:19:14;;;;;;;24.80;11.02;;;1.90;99.90;;;;;;6247880;23;20019;-95
2022/12/03 17:21:40;;;;;;;24.30;11.13;;;1.90;99.90;;;;;;6249369;23;20012;-94
2022/12/03 17:24:06;;;;;;;25.05;10.77;;;2.00;99.90;;;;;;6248999;23;20079;-95
2022/12/03 17:26:32;;;;;;;29.05;12.48;;;2.00;99.90;;;;;;6247807;23;20004;-91
2022/12/03 17:28:57;;;;;;;25.35;10.65;;;2.00;99.90;;;;;;6247290;23;20008;-92
2022/12/03 17:31:25;;;;;;;25.92;10.75;;;1.90;99.90;;;;;;6247962;23;20043;-94
2022/12/03 17:33:56;;;;;;;26.67;11.48;;;2.00;99.90;;;;;;6245730;23;20515;-93
2022/12/03 17:36:22;;;;;;;27.08;11.48;;;2.10;99.90;;;;;;6248182;22;20016;-93
2022/12/03 17:38:48;;;;;;;26.45;11.50;;;1.90;99.90;;;;;;6248606;22;20101;-91
2022/12/03 17:41:13;;;;;;;24.65;10.82;;;2.00;99.90;;;;;;6244757;23;20380;-95
2022/12/03 17:43:39;;;;;;;28.15;11.77;;;1.90;99.90;;;;;;6247019;23;20082;-94
2022/12/03 17:46:06;;;;;;;23.52;10.10;;;1.90;99.90;;;;;;6244615;23;20019;-95
2022/12/03 17:48:31;;;;;;;23.70;11.23;;;2.00;99.90;;;;;;6246579;22;20031;-94
2022/12/03 17:50:57;;;;;;;27.38;11.00;;;1.90;99.90;;;;;;6219686;23;20020;-93
2022/12/03 17:53:23;;;;;;;29.08;12.40;;;2.00;99.90;;;;;;6246660;22;20511;-94
2022/12/03 17:55:49;;;;;;;27.08;12.43;;;1.90;99.90;;;;;;6245919;23;20337;-94
2022/12/03 17:58:14;;;;;;;27.95;12.32;;;1.90;99.90;;;;;;6245057;23;20132;-91
2022/12/03 18:00:40;;;;;;;26.45;11.85;;;1.90;99.90;;;;;;6248200;23;20055;-92
2022/12/03 18:03:06;;;;;;;32.20;13.27;;;2.10;99.90;;;;;;6244617;23;20115;-93
2022/12/03 18:05:31;;;;;;;31.05;13.25;;;1.90;99.90;;;;;;6248774;23;20048;-92
2022/12/03 18:07:57;;;;;;;27.65;12.20;;;2.00;99.90;;;;;;6260112;22;20046;-91
2022/12/03 18:10:23;;;;;;;34.20;14.90;;;1.90;99.90;;;;;;6252781;23;20023;-93
2022/12/03 18:12:48;;;;;;;32.35;14.00;;;1.90;99.90;;;;;;6248055;23;20015;-94
2022/12/03 18:15:14;;;;;;;32.45;13.13;;;1.90;99.90;;;;;;6251138;23;20402;-91
2022/12/03 18:17:39;;;;;;;27.98;12.65;;;1.90;99.90;;;;;;6221296;23;20525;-94
2022/12/03 18:20:06;;;;;;;30.17;12.68;;;1.90;99.90;;;;;;6245855;23;20012;-95
2022/12/03 18:22:32;;;;;;;34.03;13.05;;;1.80;99.90;;;;;;6247204;23;20084;-94
2022/12/03 18:24:57;;;;;;;32.78;13.63;;;1.80;99.90;;;;;;6246943;22;20016;-95
2022/12/03 18:27:23;;;;;;;32.65;13.82;;;1.80;99.90;;;;;;6244338;23;20367;-93
2022/12/03 18:29:50;;;;;;;31.20;13.32;;;1.90;99.90;;;;;;6245771;23;20016;-93
2022/12/03 18:32:17;;;;;;;31.67;13.02;;;1.90;99.90;;;;;;6244581;23;20008;-88
2022/12/03 18:34:42;;;;;;;32.53;13.80;;;1.80;99.90;;;;;;6246666;22;20465;-94
2022/12/03 18:37:12;;;;;;;33.58;15.05;;;1.80;99.90;;;;;;6245228;23;20012;-93
2022/12/03 18:39:40;;;;;;;32.50;14.02;;;1.80;99.90;;;;;;6257556;23;20099;-93
2022/12/03 18:42:17;;;;;;;30.67;11.70;;;1.80;99.90;;;;;;6270498;22;20001;-94
2022/12/03 18:44:43;;;;;;;32.30;14.07;;;1.80;99.90;;;;;;6271319;22;20015;-92
2022/12/03 18:47:14;;;;;;;30.23;13.07;;;1.80;99.90;;;;;;6271507;22;20016;-90
2022/12/03 18:49:40;;;;;;;34.60;13.52;;;1.70;99.90;;;;;;6269610;22;20027;-90
2022/12/03 18:52:06;;;;;;;30.13;12.57;;;1.70;99.90;;;;;;6269648;23;20036;-93
2022/12/03 18:54:32;;;;;;;34.58;13.85;;;1.70;99.90;;;;;;6271568;22;20020;-93
2022/12/03 18:56:57;;;;;;;35.22;15.18;;;1.70;99.90;;;;;;6271189;22;20034;-93
2022/12/03 18:59:23;;;;;;;32.90;13.63;;;1.70;99.90;;;;;;6245188;22;20316;-92
2022/12/03 19:01:49;;;;;;;29.52;13.50;;;1.60;99.90;;;;;;6271074;22;20024;-93
2022/12/03 19:04:14;;;;;;;38.05;15.68;;;1.60;99.90;;;;;;6271960;22;20004;-94
2022/12/03 19:06:40;;;;;;;34.03;13.90;;;1.50;99.90;;;;;;6247270;23;20008;-94
2022/12/03 19:09:06;;;;;;;31.20;14.68;;;1.50;99.90;;;;;;6271148;22;20055;-94
2022/12/03 19:11:32;;;;;;;31.80;14.00;;;1.50;99.90;;;;;;6272359;22;20005;-92
2022/12/03 19:13:58;;;;;;;35.08;13.75;;;1.50;99.90;;;;;;6270906;22;20024;-93
2022/12/03 19:16:24;;;;;;;32.08;13.88;;;1.50;99.90;;;;;;6271956;22;20031;-94
2022/12/03 19:18:51;;;;;;;34.20;13.52;;;1.50;99.90;;;;;;6272333;22;20048;-94
2022/12/03 19:21:17;;;;;;;35.35;14.48;;;1.50;99.90;;;;;;6272020;22;20000;-94
2022/12/03 19:23:43;;;;;;;35.58;15.10;;;1.40;99.90;;;;;;6272927;22;20011;-94
2022/12/03 19:26:11;;;;;;;42.75;14.93;;;1.40;99.90;;;;;;6271270;22;20000;-93
2022/12/03 19:28:37;;;;;;;32.10;13.20;;;1.40;99.90;;;;;;6271656;22;20039;-92
2022/12/03 19:31:11;;;;;;;33.10;14.85;;;1.50;99.90;;;;;;6272605;22;20111;-95
2022/12/03 19:33:37;;;;;;;36.45;13.80;;;1.40;99.90;;;;;;6272514;22;20075;-92
2022/12/03 19:36:05;;;;;;;37.10;16.00;;;1.40;99.90;;;;;;6272034;22;20011;-93
2022/12/03 19:38:32;;;;;;;37.75;15.52;;;1.40;99.90;;;;;;6245594;22;20019;-93
2022/12/03 19:41:06;;;;;;;37.40;14.27;;;1.40;99.90;;;;;;6272122;22;20031;-93
2022/12/03 19:43:35;;;;;;;33.78;14.63;;;1.40;99.90;;;;;;6271037;23;20036;-94
2022/12/03 19:46:08;;;;;;;41.28;14.90;;;1.40;99.90;;;;;;6271069;22;20047;-91
2022/12/03 19:48:35;;;;;;;32.85;13.68;;;1.30;99.90;;;;;;6270353;22;20011;-93
2022/12/03 19:51:01;;;;;;;32.85;13.93;;;1.30;99.90;;;;;;6271554;22;20004;-93
2022/12/03 19:53:28;;;;;;;33.72;14.50;;;1.30;99.90;;;;;;6255186;23;20043;-94
2022/12/03 19:55:59;;;;;;;32.85;13.68;;;1.30;99.90;;;;;;6260512;22;20000;-95
2022/12/03 19:58:25;;;;;;;31.30;13.07;;;1.30;99.90;;;;;;6260841;22;20058;-93
2022/12/03 20:00:51;;;;;;;29.80;13.05;;;1.40;99.90;;;;;;6253802;23;20027;-93
2022/12/03 20:03:17;;;;;;;39.20;14.30;;;1.40;99.90;;;;;;6250243;23;20044;-93
2022/12/03 20:05:42;;;;;;;33.03;13.98;;;1.20;99.90;;;;;;6257922;23;20022;-91
2022/12/03 20:08:08;;;;;;;31.60;14.68;;;1.30;99.90;;;;;;6267370;22;20028;-93
2022/12/03 20:10:34;;;;;;;34.17;14.40;;;1.20;99.90;;;;;;6264970;22;20437;-94
2022/12/03 20:13:00;;;;;;;33.85;14.90;;;1.20;99.90;;;;;;6248682;23;20091;-91
2022/12/03 20:15:26;;;;;;;32.95;14.63;;;1.20;99.90;;;;;;6221397;23;20358;-91